sensor_id;sensor_type;location;lat;lon;timestamp;P1;durP1;ratioP1;P2;durP2;ratioP2
18931;SDS011;9598;50.954;3.112;2024-03-07T00:00:33;24.58;;;20.92;;
18931;SDS011;9598;50.954;3.112;2024-03-07T00:05:35;25.15;;;22.23;;
18931;SDS011;9598;50.954;3.112;2024-03-07T00:10:38;25.17;;;21.05;;
18931;SDS011;9598;50.954;3.112;2024-03-07T00:15:42;25.13;;;21.63;;
18931;SDS011;9598;50.954;3.112;2024-03-07T00:20:44;24.58;;;20.67;;
18931;SDS011;9598;50.954;3.112;2024-03-07T00:25:46;28.50;;;24.27;;
18931;SDS011;9598;50.954;3.112;2024-03-07T00:30:50;26.52;;;22.20;;
18931;SDS011;9598;50.954;3.112;2024-03-07T00:35:52;26.05;;;23.25;;
18931;SDS011;9598;50.954;3.112;2024-03-07T00:40:55;25.67;;;21.73;;
18931;SDS011;9598;50.954;3.112;2024-03-07T00:45:58;27.67;;;21.40;;
18931;SDS011;9598;50.954;3.112;2024-03-07T00:51:00;26.77;;;22.30;;
18931;SDS011;9598;50.954;3.112;2024-03-07T00:56:04;31.10;;;23.73;;
18931;SDS011;9598;50.954;3.112;2024-03-07T01:01:07;30.50;;;24.63;;
18931;SDS011;9598;50.954;3.112;2024-03-07T01:06:11;35.45;;;26.08;;
18931;SDS011;9598;50.954;3.112;2024-03-07T01:11:14;33.28;;;26.73;;
18931;SDS011;9598;50.954;3.112;2024-03-07T01:16:17;35.45;;;26.95;;
18931;SDS011;9598;50.954;3.112;2024-03-07T01:21:19;35.58;;;26.90;;
18931;SDS011;9598;50.954;3.112;2024-03-07T01:26:22;38.25;;;27.15;;
18931;SDS011;9598;50.954;3.112;2024-03-07T01:31:26;35.22;;;27.63;;
18931;SDS011;9598;50.954;3.112;2024-03-07T01:36:29;36.78;;;28.38;;
18931;SDS011;9598;50.954;3.112;2024-03-07T01:41:31;39.90;;;29.55;;
18931;SDS011;9598;50.954;3.112;2024-03-07T01:46:36;40.20;;;30.25;;
18931;SDS011;9598;50.954;3.112;2024-03-07T01:51:38;41.60;;;31.85;;
18931;SDS011;9598;50.954;3.112;2024-03-07T01:56:40;39.85;;;30.13;;
18931;SDS011;9598;50.954;3.112;2024-03-07T02:01:45;40.65;;;30.73;;
18931;SDS011;9598;50.954;3.112;2024-03-07T02:06:47;42.53;;;31.58;;
18931;SDS011;9598;50.954;3.112;2024-03-07T02:11:49;41.92;;;31.33;;
18931;SDS011;9598;50.954;3.112;2024-03-07T02:16:53;44.35;;;31.90;;
18931;SDS011;9598;50.954;3.112;2024-03-07T02:21:58;41.95;;;31.33;;
18931;SDS011;9598;50.954;3.112;2024-03-07T02:27:00;42.30;;;31.98;;
18931;SDS011;9598;50.954;3.112;2024-03-07T02:32:02;43.00;;;32.22;;
18931;SDS011;9598;50.954;3.112;2024-03-07T02:37:06;44.97;;;33.38;;
18931;SDS011;9598;50.954;3.112;2024-03-07T02:42:09;49.08;;;33.90;;
18931;SDS011;9598;50.954;3.112;2024-03-07T02:47:11;46.95;;;34.15;;
18931;SDS011;9598;50.954;3.112;2024-03-07T02:52:15;50.45;;;34.53;;
18931;SDS011;9598;50.954;3.112;2024-03-07T02:57:18;48.05;;;33.50;;
18931;SDS011;9598;50.954;3.112;2024-03-07T03:02:21;52.55;;;34.65;;
18931;SDS011;9598;50.954;3.112;2024-03-07T03:07:24;47.85;;;34.90;;
18931;SDS011;9598;50.954;3.112;2024-03-07T03:12:26;51.50;;;35.42;;
18931;SDS011;9598;50.954;3.112;2024-03-07T03:17:28;50.67;;;36.97;;
18931;SDS011;9598;50.954;3.112;2024-03-07T03:22:32;52.35;;;37.65;;
18931;SDS011;9598;50.954;3.112;2024-03-07T03:27:34;54.17;;;35.78;;
18931;SDS011;9598;50.954;3.112;2024-03-07T03:32:37;56.67;;;38.08;;
18931;SDS011;9598;50.954;3.112;2024-03-07T03:37:41;52.67;;;38.65;;
18931;SDS011;9598;50.954;3.112;2024-03-07T03:42:44;50.70;;;37.33;;
18931;SDS011;9598;50.954;3.112;2024-03-07T03:47:46;49.65;;;36.83;;
18931;SDS011;9598;50.954;3.112;2024-03-07T03:52:50;53.60;;;36.90;;
18931;SDS011;9598;50.954;3.112;2024-03-07T03:57:53;56.55;;;37.50;;
18931;SDS011;9598;50.954;3.112;2024-03-07T04:02:55;58.83;;;39.13;;
18931;SDS011;9598;50.954;3.112;2024-03-07T04:07:59;53.70;;;39.33;;
18931;SDS011;9598;50.954;3.112;2024-03-07T04:13:01;56.90;;;38.17;;
18931;SDS011;9598;50.954;3.112;2024-03-07T04:18:04;55.03;;;39.08;;
18931;SDS011;9598;50.954;3.112;2024-03-07T04:23:09;57.92;;;38.42;;
18931;SDS011;9598;50.954;3.112;2024-03-07T04:28:11;57.72;;;38.97;;
18931;SDS011;9598;50.954;3.112;2024-03-07T04:33:13;60.63;;;39.47;;
18931;SDS011;9598;50.954;3.112;2024-03-07T04:38:16;56.22;;;41.72;;
18931;SDS011;9598;50.954;3.112;2024-03-07T04:43:19;59.58;;;40.25;;
18931;SDS011;9598;50.954;3.112;2024-03-07T04:48:21;56.35;;;38.70;;
18931;SDS011;9598;50.954;3.112;2024-03-07T04:53:25;58.10;;;39.90;;
18931;SDS011;9598;50.954;3.112;2024-03-07T04:58:27;60.05;;;41.30;;
18931;SDS011;9598;50.954;3.112;2024-03-07T05:03:30;57.17;;;40.13;;
18931;SDS011;9598;50.954;3.112;2024-03-07T05:08:33;57.72;;;40.65;;
18931;SDS011;9598;50.954;3.112;2024-03-07T05:13:35;67.82;;;41.10;;
18931;SDS011;9598;50.954;3.112;2024-03-07T05:18:38;66.78;;;44.13;;
18931;SDS011;9598;50.954;3.112;2024-03-07T05:23:42;65.20;;;41.80;;
18931;SDS011;9598;50.954;3.112;2024-03-07T05:28:44;61.75;;;42.28;;
18931;SDS011;9598;50.954;3.112;2024-03-07T05:33:46;61.25;;;42.20;;
18931;SDS011;9598;50.954;3.112;2024-03-07T05:38:51;74.40;;;42.30;;
18931;SDS011;9598;50.954;3.112;2024-03-07T05:43:53;68.57;;;42.17;;
18931;SDS011;9598;50.954;3.112;2024-03-07T05:48:55;62.78;;;43.55;;
18931;SDS011;9598;50.954;3.112;2024-03-07T05:53:59;64.65;;;43.22;;
18931;SDS011;9598;50.954;3.112;2024-03-07T05:59:01;70.18;;;44.08;;
18931;SDS011;9598;50.954;3.112;2024-03-07T06:04:05;69.68;;;44.65;;
18931;SDS011;9598;50.954;3.112;2024-03-07T06:09:10;64.93;;;41.25;;
18931;SDS011;9598;50.954;3.112;2024-03-07T06:14:14;66.50;;;42.70;;
18931;SDS011;9598;50.954;3.112;2024-03-07T06:19:18;64.63;;;45.72;;
18931;SDS011;9598;50.954;3.112;2024-03-07T06:24:27;65.05;;;44.15;;
18931;SDS011;9598;50.954;3.112;2024-03-07T06:29:50;68.30;;;44.17;;
18931;SDS011;9598;50.954;3.112;2024-03-07T06:34:53;65.90;;;43.67;;
18931;SDS011;9598;50.954;3.112;2024-03-07T06:39:57;71.72;;;47.97;;
18931;SDS011;9598;50.954;3.112;2024-03-07T06:44:59;66.60;;;43.08;;
18931;SDS011;9598;50.954;3.112;2024-03-07T06:50:02;68.38;;;45.60;;
18931;SDS011;9598;50.954;3.112;2024-03-07T06:55:12;67.85;;;42.72;;
18931;SDS011;9598;50.954;3.112;2024-03-07T07:00:17;68.05;;;44.85;;
18931;SDS011;9598;50.954;3.112;2024-03-07T07:05:20;72.00;;;45.97;;
18931;SDS011;9598;50.954;3.112;2024-03-07T07:10:25;69.55;;;43.22;;
18931;SDS011;9598;50.954;3.112;2024-03-07T07:15:27;72.28;;;44.45;;
18931;SDS011;9598;50.954;3.112;2024-03-07T07:20:29;70.32;;;45.53;;
18931;SDS011;9598;50.954;3.112;2024-03-07T07:25:36;78.55;;;47.65;;
18931;SDS011;9598;50.954;3.112;2024-03-07T07:30:38;72.40;;;45.15;;
18931;SDS011;9598;50.954;3.112;2024-03-07T07:35:41;74.05;;;45.75;;
18931;SDS011;9598;50.954;3.112;2024-03-07T07:40:44;70.30;;;45.75;;
18931;SDS011;9598;50.954;3.112;2024-03-07T07:45:47;71.00;;;45.15;;
18931;SDS011;9598;50.954;3.112;2024-03-07T07:50:49;73.40;;;47.35;;
18931;SDS011;9598;50.954;3.112;2024-03-07T07:55:53;75.20;;;47.33;;
18931;SDS011;9598;50.954;3.112;2024-03-07T08:00:55;79.80;;;48.05;;
18931;SDS011;9598;50.954;3.112;2024-03-07T08:05:58;80.53;;;48.05;;
18931;SDS011;9598;50.954;3.112;2024-03-07T08:11:01;78.05;;;50.03;;
18931;SDS011;9598;50.954;3.112;2024-03-07T08:16:04;80.22;;;49.53;;
18931;SDS011;9598;50.954;3.112;2024-03-07T08:21:07;76.35;;;47.47;;
18931;SDS011;9598;50.954;3.112;2024-03-07T08:26:12;71.90;;;45.22;;
18931;SDS011;9598;50.954;3.112;2024-03-07T08:31:16;74.53;;;45.47;;
18931;SDS011;9598;50.954;3.112;2024-03-07T08:36:18;79.10;;;48.15;;
18931;SDS011;9598;50.954;3.112;2024-03-07T08:41:22;74.32;;;44.35;;
18931;SDS011;9598;50.954;3.112;2024-03-07T08:46:24;72.50;;;45.97;;
18931;SDS011;9598;50.954;3.112;2024-03-07T08:51:27;70.15;;;41.97;;
18931;SDS011;9598;50.954;3.112;2024-03-07T08:56:32;68.30;;;46.25;;
18931;SDS011;9598;50.954;3.112;2024-03-07T09:01:34;71.80;;;43.72;;
18931;SDS011;9598;50.954;3.112;2024-03-07T09:06:36;73.25;;;44.53;;
18931;SDS011;9598;50.954;3.112;2024-03-07T09:11:40;70.93;;;44.45;;
18931;SDS011;9598;50.954;3.112;2024-03-07T09:16:42;66.65;;;42.88;;
18931;SDS011;9598;50.954;3.112;2024-03-07T09:21:45;59.30;;;35.42;;
18931;SDS011;9598;50.954;3.112;2024-03-07T09:26:49;61.55;;;41.17;;
18931;SDS011;9598;50.954;3.112;2024-03-07T09:31:52;62.95;;;40.22;;
18931;SDS011;9598;50.954;3.112;2024-03-07T09:36:55;64.80;;;42.00;;
18931;SDS011;9598;50.954;3.112;2024-03-07T09:42:00;64.05;;;42.60;;
18931;SDS011;9598;50.954;3.112;2024-03-07T09:47:03;64.45;;;41.92;;
18931;SDS011;9598;50.954;3.112;2024-03-07T09:52:07;61.58;;;40.15;;
18931;SDS011;9598;50.954;3.112;2024-03-07T09:57:13;62.70;;;40.75;;
18931;SDS011;9598;50.954;3.112;2024-03-07T10:02:16;58.85;;;39.58;;
18931;SDS011;9598;50.954;3.112;2024-03-07T10:07:21;59.58;;;40.20;;
18931;SDS011;9598;50.954;3.112;2024-03-07T10:12:24;56.72;;;36.58;;
18931;SDS011;9598;50.954;3.112;2024-03-07T10:17:27;48.80;;;31.75;;
18931;SDS011;9598;50.954;3.112;2024-03-07T10:22:30;50.22;;;35.55;;
18931;SDS011;9598;50.954;3.112;2024-03-07T10:27:35;47.55;;;31.73;;
18931;SDS011;9598;50.954;3.112;2024-03-07T10:32:40;48.67;;;31.85;;
18931;SDS011;9598;50.954;3.112;2024-03-07T10:37:43;51.55;;;33.45;;
18931;SDS011;9598;50.954;3.112;2024-03-07T10:42:50;48.15;;;33.58;;
18931;SDS011;9598;50.954;3.112;2024-03-07T10:47:58;49.00;;;32.70;;
18931;SDS011;9598;50.954;3.112;2024-03-07T10:53:03;51.95;;;34.25;;
18931;SDS011;9598;50.954;3.112;2024-03-07T10:58:14;55.17;;;38.15;;
18931;SDS011;9598;50.954;3.112;2024-03-07T11:03:27;53.72;;;36.60;;
18931;SDS011;9598;50.954;3.112;2024-03-07T11:08:33;53.33;;;36.70;;
18931;SDS011;9598;50.954;3.112;2024-03-07T11:13:37;51.75;;;36.53;;
18931;SDS011;9598;50.954;3.112;2024-03-07T11:18:39;54.25;;;37.42;;
18931;SDS011;9598;50.954;3.112;2024-03-07T11:23:44;53.17;;;36.95;;
18931;SDS011;9598;50.954;3.112;2024-03-07T11:28:48;48.40;;;34.28;;
18931;SDS011;9598;50.954;3.112;2024-03-07T11:44:52;48.08;;;34.72;;
18931;SDS011;9598;50.954;3.112;2024-03-07T11:49:56;50.30;;;35.08;;
18931;SDS011;9598;50.954;3.112;2024-03-07T11:55:00;49.85;;;34.17;;
18931;SDS011;9598;50.954;3.112;2024-03-07T12:00:07;47.50;;;33.63;;
18931;SDS011;9598;50.954;3.112;2024-03-07T12:05:14;45.70;;;33.97;;
18931;SDS011;9598;50.954;3.112;2024-03-07T12:10:17;47.22;;;32.95;;
18931;SDS011;9598;50.954;3.112;2024-03-07T12:15:26;42.40;;;30.95;;
18931;SDS011;9598;50.954;3.112;2024-03-07T12:20:29;44.10;;;29.92;;
18931;SDS011;9598;50.954;3.112;2024-03-07T12:25:33;40.85;;;31.90;;
18931;SDS011;9598;50.954;3.112;2024-03-07T12:30:46;43.40;;;32.03;;
18931;SDS011;9598;50.954;3.112;2024-03-07T12:35:51;43.70;;;33.63;;
18931;SDS011;9598;50.954;3.112;2024-03-07T12:41:03;43.28;;;32.92;;
18931;SDS011;9598;50.954;3.112;2024-03-07T12:46:09;40.70;;;32.33;;
18931;SDS011;9598;50.954;3.112;2024-03-07T12:51:14;44.97;;;35.50;;
18931;SDS011;9598;50.954;3.112;2024-03-07T12:56:17;45.30;;;33.53;;
18931;SDS011;9598;50.954;3.112;2024-03-07T13:01:21;47.25;;;34.35;;
18931;SDS011;9598;50.954;3.112;2024-03-07T13:06:23;44.40;;;32.97;;
18931;SDS011;9598;50.954;3.112;2024-03-07T13:11:29;44.97;;;33.83;;
18931;SDS011;9598;50.954;3.112;2024-03-07T13:16:36;43.20;;;34.03;;
18931;SDS011;9598;50.954;3.112;2024-03-07T13:21:38;40.20;;;30.45;;
18931;SDS011;9598;50.954;3.112;2024-03-07T13:26:40;42.17;;;31.17;;
18931;SDS011;9598;50.954;3.112;2024-03-07T13:31:45;41.70;;;27.92;;
18931;SDS011;9598;50.954;3.112;2024-03-07T13:36:48;36.00;;;25.95;;
18931;SDS011;9598;50.954;3.112;2024-03-07T13:41:51;33.95;;;27.38;;
18931;SDS011;9598;50.954;3.112;2024-03-07T13:46:56;39.72;;;29.10;;
18931;SDS011;9598;50.954;3.112;2024-03-07T13:52:00;31.17;;;25.70;;
18931;SDS011;9598;50.954;3.112;2024-03-07T13:57:21;28.92;;;24.67;;
18931;SDS011;9598;50.954;3.112;2024-03-07T14:08:13;30.90;;;25.17;;
18931;SDS011;9598;50.954;3.112;2024-03-07T14:13:39;28.15;;;23.23;;
18931;SDS011;9598;50.954;3.112;2024-03-07T14:30:19;30.23;;;22.27;;
18931;SDS011;9598;50.954;3.112;2024-03-07T14:35:35;31.10;;;24.58;;
18931;SDS011;9598;50.954;3.112;2024-03-07T14:40:57;31.70;;;26.23;;
18931;SDS011;9598;50.954;3.112;2024-03-07T14:45:59;32.80;;;26.15;;
18931;SDS011;9598;50.954;3.112;2024-03-07T14:51:03;32.50;;;25.23;;
18931;SDS011;9598;50.954;3.112;2024-03-07T14:56:07;31.27;;;26.40;;
18931;SDS011;9598;50.954;3.112;2024-03-07T15:01:11;28.10;;;25.08;;
18931;SDS011;9598;50.954;3.112;2024-03-07T15:06:13;29.63;;;25.73;;
18931;SDS011;9598;50.954;3.112;2024-03-07T15:11:19;31.95;;;23.75;;
18931;SDS011;9598;50.954;3.112;2024-03-07T15:16:26;29.80;;;26.45;;
18931;SDS011;9598;50.954;3.112;2024-03-07T15:21:31;31.00;;;25.70;;
18931;SDS011;9598;50.954;3.112;2024-03-07T15:26:34;34.35;;;26.60;;
18931;SDS011;9598;50.954;3.112;2024-03-07T15:31:36;31.45;;;27.95;;
18931;SDS011;9598;50.954;3.112;2024-03-07T15:36:41;36.40;;;27.45;;
18931;SDS011;9598;50.954;3.112;2024-03-07T15:41:44;35.00;;;29.58;;
18931;SDS011;9598;50.954;3.112;2024-03-07T15:46:48;38.90;;;31.38;;
18931;SDS011;9598;50.954;3.112;2024-03-07T15:51:50;33.70;;;28.50;;
18931;SDS011;9598;50.954;3.112;2024-03-07T15:56:55;31.58;;;27.75;;
18931;SDS011;9598;50.954;3.112;2024-03-07T16:01:57;34.38;;;29.27;;
18931;SDS011;9598;50.954;3.112;2024-03-07T16:07:00;34.28;;;29.70;;
18931;SDS011;9598;50.954;3.112;2024-03-07T16:12:05;31.20;;;27.80;;
18931;SDS011;9598;50.954;3.112;2024-03-07T16:17:10;32.88;;;27.33;;
18931;SDS011;9598;50.954;3.112;2024-03-07T16:22:14;32.25;;;26.42;;
18931;SDS011;9598;50.954;3.112;2024-03-07T16:27:18;29.13;;;25.67;;
18931;SDS011;9598;50.954;3.112;2024-03-07T16:32:20;31.20;;;26.73;;
18931;SDS011;9598;50.954;3.112;2024-03-07T16:37:22;31.65;;;25.80;;
18931;SDS011;9598;50.954;3.112;2024-03-07T16:42:26;31.35;;;27.35;;
18931;SDS011;9598;50.954;3.112;2024-03-07T16:47:28;29.27;;;24.77;;
18931;SDS011;9598;50.954;3.112;2024-03-07T16:52:31;29.85;;;26.67;;
18931;SDS011;9598;50.954;3.112;2024-03-07T16:57:37;29.08;;;25.05;;
18931;SDS011;9598;50.954;3.112;2024-03-07T17:02:40;26.95;;;22.00;;
18931;SDS011;9598;50.954;3.112;2024-03-07T17:07:43;31.48;;;27.75;;
18931;SDS011;9598;50.954;3.112;2024-03-07T17:12:48;28.88;;;25.65;;
18931;SDS011;9598;50.954;3.112;2024-03-07T17:17:51;32.22;;;28.48;;
18931;SDS011;9598;50.954;3.112;2024-03-07T17:22:54;33.63;;;27.70;;
18931;SDS011;9598;50.954;3.112;2024-03-07T17:27:58;29.70;;;26.23;;
18931;SDS011;9598;50.954;3.112;2024-03-07T17:33:00;28.67;;;25.30;;
18931;SDS011;9598;50.954;3.112;2024-03-07T17:38:05;30.45;;;26.67;;
18931;SDS011;9598;50.954;3.112;2024-03-07T17:43:11;30.77;;;27.15;;
18931;SDS011;9598;50.954;3.112;2024-03-07T17:48:14;32.90;;;26.67;;
18931;SDS011;9598;50.954;3.112;2024-03-07T17:53:16;30.38;;;26.20;;
18931;SDS011;9598;50.954;3.112;2024-03-07T17:58:21;32.25;;;26.65;;
18931;SDS011;9598;50.954;3.112;2024-03-07T18:03:24;30.05;;;26.90;;
18931;SDS011;9598;50.954;3.112;2024-03-07T18:08:28;29.30;;;26.17;;
18931;SDS011;9598;50.954;3.112;2024-03-07T18:13:35;29.90;;;26.02;;
18931;SDS011;9598;50.954;3.112;2024-03-07T18:18:39;31.60;;;26.65;;
18931;SDS011;9598;50.954;3.112;2024-03-07T18:23:42;29.02;;;25.80;;
18931;SDS011;9598;50.954;3.112;2024-03-07T18:28:46;30.70;;;25.73;;
18931;SDS011;9598;50.954;3.112;2024-03-07T18:33:50;30.40;;;25.35;;
18931;SDS011;9598;50.954;3.112;2024-03-07T18:38:52;28.77;;;24.30;;
18931;SDS011;9598;50.954;3.112;2024-03-07T18:43:56;30.88;;;27.45;;
18931;SDS011;9598;50.954;3.112;2024-03-07T18:48:58;29.90;;;26.00;;
18931;SDS011;9598;50.954;3.112;2024-03-07T18:54:09;28.98;;;25.50;;
18931;SDS011;9598;50.954;3.112;2024-03-07T18:59:16;31.08;;;26.15;;
18931;SDS011;9598;50.954;3.112;2024-03-07T19:04:19;31.02;;;26.25;;
18931;SDS011;9598;50.954;3.112;2024-03-07T19:09:22;30.13;;;26.48;;
18931;SDS011;9598;50.954;3.112;2024-03-07T19:14:33;32.00;;;27.40;;
18931;SDS011;9598;50.954;3.112;2024-03-07T19:19:36;33.63;;;28.80;;
18931;SDS011;9598;50.954;3.112;2024-03-07T19:24:38;32.22;;;27.63;;
18931;SDS011;9598;50.954;3.112;2024-03-07T19:29:46;34.92;;;27.75;;
18931;SDS011;9598;50.954;3.112;2024-03-07T19:34:55;33.67;;;28.40;;
18931;SDS011;9598;50.954;3.112;2024-03-07T19:39:58;32.83;;;27.15;;
18931;SDS011;9598;50.954;3.112;2024-03-07T19:45:02;32.38;;;26.30;;
18931;SDS011;9598;50.954;3.112;2024-03-07T19:50:05;31.23;;;25.75;;
18931;SDS011;9598;50.954;3.112;2024-03-07T19:55:09;28.73;;;25.40;;
18931;SDS011;9598;50.954;3.112;2024-03-07T20:00:13;33.17;;;25.38;;
18931;SDS011;9598;50.954;3.112;2024-03-07T20:05:17;30.27;;;25.25;;
18931;SDS011;9598;50.954;3.112;2024-03-07T20:10:20;27.98;;;21.80;;
18931;SDS011;9598;50.954;3.112;2024-03-07T20:15:26;26.35;;;22.23;;
18931;SDS011;9598;50.954;3.112;2024-03-07T20:20:28;26.50;;;21.55;;
18931;SDS011;9598;50.954;3.112;2024-03-07T20:25:32;28.13;;;23.02;;
18931;SDS011;9598;50.954;3.112;2024-03-07T20:30:40;28.80;;;22.35;;
18931;SDS011;9598;50.954;3.112;2024-03-07T20:35:45;26.30;;;20.00;;
18931;SDS011;9598;50.954;3.112;2024-03-07T20:40:48;27.80;;;22.45;;
18931;SDS011;9598;50.954;3.112;2024-03-07T20:45:53;25.58;;;21.20;;
18931;SDS011;9598;50.954;3.112;2024-03-07T20:50:56;27.95;;;22.27;;
18931;SDS011;9598;50.954;3.112;2024-03-07T20:55:59;25.70;;;20.30;;
18931;SDS011;9598;50.954;3.112;2024-03-07T21:01:03;25.17;;;20.98;;
18931;SDS011;9598;50.954;3.112;2024-03-07T21:06:09;29.40;;;21.65;;
18931;SDS011;9598;50.954;3.112;2024-03-07T21:11:13;27.48;;;21.77;;
18931;SDS011;9598;50.954;3.112;2024-03-07T21:16:16;25.70;;;20.90;;
18931;SDS011;9598;50.954;3.112;2024-03-07T21:21:19;27.60;;;19.67;;
18931;SDS011;9598;50.954;3.112;2024-03-07T21:26:24;25.88;;;20.33;;
18931;SDS011;9598;50.954;3.112;2024-03-07T21:31:28;26.67;;;20.58;;
18931;SDS011;9598;50.954;3.112;2024-03-07T21:36:30;27.23;;;20.90;;
18931;SDS011;9598;50.954;3.112;2024-03-07T21:41:34;28.67;;;21.02;;
18931;SDS011;9598;50.954;3.112;2024-03-07T21:46:40;24.73;;;19.90;;
18931;SDS011;9598;50.954;3.112;2024-03-07T21:51:45;27.63;;;20.45;;
18931;SDS011;9598;50.954;3.112;2024-03-07T21:56:49;25.05;;;19.65;;
18931;SDS011;9598;50.954;3.112;2024-03-07T22:01:54;29.20;;;20.95;;
18931;SDS011;9598;50.954;3.112;2024-03-07T22:06:56;23.42;;;19.30;;
18931;SDS011;9598;50.954;3.112;2024-03-07T22:11:58;28.08;;;20.05;;
18931;SDS011;9598;50.954;3.112;2024-03-07T22:17:02;25.05;;;18.35;;
18931;SDS011;9598;50.954;3.112;2024-03-07T22:22:05;25.63;;;19.25;;
18931;SDS011;9598;50.954;3.112;2024-03-07T22:27:08;25.42;;;20.30;;
18931;SDS011;9598;50.954;3.112;2024-03-07T22:32:12;27.45;;;20.13;;
18931;SDS011;9598;50.954;3.112;2024-03-07T22:37:14;25.45;;;19.38;;
18931;SDS011;9598;50.954;3.112;2024-03-07T22:42:16;26.85;;;20.67;;
18931;SDS011;9598;50.954;3.112;2024-03-07T22:47:20;25.48;;;20.05;;
18931;SDS011;9598;50.954;3.112;2024-03-07T22:52:23;25.98;;;19.50;;
18931;SDS011;9598;50.954;3.112;2024-03-07T22:57:25;26.13;;;18.75;;
18931;SDS011;9598;50.954;3.112;2024-03-07T23:02:29;25.58;;;18.67;;
18931;SDS011;9598;50.954;3.112;2024-03-07T23:07:31;25.30;;;20.00;;
18931;SDS011;9598;50.954;3.112;2024-03-07T23:12:34;28.10;;;20.42;;
18931;SDS011;9598;50.954;3.112;2024-03-07T23:17:39;27.73;;;20.90;;
18931;SDS011;9598;50.954;3.112;2024-03-07T23:22:43;28.20;;;21.90;;
18931;SDS011;9598;50.954;3.112;2024-03-07T23:27:46;27.42;;;21.23;;
18931;SDS011;9598;50.954;3.112;2024-03-07T23:32:50;27.90;;;21.13;;
18931;SDS011;9598;50.954;3.112;2024-03-07T23:37:53;28.40;;;22.65;;
18931;SDS011;9598;50.954;3.112;2024-03-07T23:42:55;30.67;;;22.55;;
18931;SDS011;9598;50.954;3.112;2024-03-07T23:47:58;26.20;;;20.55;;
18931;SDS011;9598;50.954;3.112;2024-03-07T23:53:01;26.38;;;19.48;;
18931;SDS011;9598;50.954;3.112;2024-03-07T23:58:07;27.08;;;20.45;;
